createdAt,value
2018-07-26T00:00:12.073Z,4.70
2018-07-26T00:02:40.474Z,4.42
2018-07-26T00:05:08.837Z,4.62
2018-07-26T00:07:38.306Z,5.45
2018-07-26T00:10:07.967Z,5.35
2018-07-26T00:12:36.384Z,4.72
2018-07-26T00:15:06.352Z,4.15
2018-07-26T00:17:34.671Z,6.28
2018-07-26T00:20:03.166Z,4.00
2018-07-26T00:22:31.485Z,4.62
2018-07-26T00:24:59.675Z,8.33
2018-07-26T00:27:28.622Z,4.83
2018-07-26T00:29:57.134Z,4.92
2018-07-26T00:32:25.618Z,4.95
2018-07-26T00:34:54.478Z,4.85
2018-07-26T00:37:22.857Z,4.42
2018-07-26T00:39:51.368Z,4.60
2018-07-26T00:42:20.136Z,4.60
2018-07-26T00:44:48.542Z,5.12
2018-07-26T00:47:17.121Z,4.50
2018-07-26T00:49:45.611Z,3.95
2018-07-26T00:52:13.933Z,4.22
2018-07-26T00:54:42.590Z,3.98
2018-07-26T00:57:11.636Z,4.20
2018-07-26T00:59:40.064Z,4.12
2018-07-26T01:02:08.584Z,4.50
2018-07-26T01:04:37.439Z,5.28
2018-07-26T01:07:05.955Z,5.10
2018-07-26T01:09:35.964Z,4.40
2018-07-26T01:12:04.652Z,4.67
2018-07-26T01:14:33.250Z,4.92
2018-07-26T01:17:02.545Z,5.10
2018-07-26T01:19:30.939Z,4.10
2018-07-26T01:21:59.497Z,4.35
2018-07-26T01:24:28.164Z,4.62
2018-07-26T01:26:56.630Z,4.97
2018-07-26T01:29:25.015Z,4.12
2018-07-26T01:31:55.277Z,4.40
2018-07-26T01:34:24.513Z,5.17
2018-07-26T01:36:53.987Z,4.62
2018-07-26T01:39:22.467Z,4.70
2018-07-26T01:41:51.505Z,4.28
2018-07-26T01:44:22.956Z,4.75
2018-07-26T01:46:51.318Z,4.53
2018-07-26T01:49:19.877Z,4.33
2018-07-26T01:51:49.238Z,4.95
2018-07-26T01:54:17.761Z,4.20
2018-07-26T01:56:46.351Z,4.40
2018-07-26T01:59:14.989Z,4.10
2018-07-26T02:01:43.558Z,4.85
2018-07-26T02:04:11.833Z,4.33
2018-07-26T02:06:40.628Z,4.35
2018-07-26T02:09:11.408Z,4.30
2018-07-26T02:11:40.107Z,5.35
2018-07-26T02:14:13.983Z,6.00
2018-07-26T02:16:42.536Z,4.22
2018-07-26T02:19:11.544Z,4.08
2018-07-26T02:21:40.110Z,4.20
2018-07-26T02:24:08.530Z,3.72
2018-07-26T02:26:37.075Z,4.80
2018-07-26T02:29:06.855Z,4.50
2018-07-26T02:31:35.229Z,4.33
2018-07-26T02:34:03.746Z,4.00
2018-07-26T02:36:32.366Z,4.22
2018-07-26T02:39:00.826Z,4.12
2018-07-26T02:41:29.320Z,4.12
2018-07-26T02:43:57.853Z,3.92
2018-07-26T02:46:26.218Z,4.22
2018-07-26T02:48:54.743Z,4.40
2018-07-26T02:51:23.942Z,4.12
2018-07-26T02:53:52.363Z,4.83
2018-07-26T02:56:20.858Z,3.70
2018-07-26T02:58:49.900Z,4.58
2018-07-26T03:01:18.565Z,4.58
2018-07-26T03:03:46.923Z,4.12
2018-07-26T03:06:15.507Z,3.90
2018-07-26T03:08:46.463Z,3.83
2018-07-26T03:11:14.826Z,4.85
2018-07-26T03:13:43.555Z,4.22
2018-07-26T03:16:11.913Z,3.98
2018-07-26T03:18:40.418Z,4.97
2018-07-26T03:21:08.955Z,4.87
2018-07-26T03:23:37.549Z,4.30
2018-07-26T03:26:05.938Z,4.10
2018-07-26T03:28:35.829Z,4.75
2018-07-26T03:31:04.317Z,3.95
2018-07-26T03:33:32.595Z,4.28
2018-07-26T03:36:00.971Z,4.67
2018-07-26T03:38:29.312Z,4.45
2018-07-26T03:40:57.728Z,4.08
2018-07-26T03:43:26.458Z,4.12
2018-07-26T03:45:54.873Z,4.25
2018-07-26T03:48:23.424Z,4.28
2018-07-26T03:50:52.685Z,4.20
2018-07-26T03:53:21.205Z,4.12
2018-07-26T03:55:49.849Z,3.98
2018-07-26T03:58:18.941Z,4.05
2018-07-26T04:00:47.338Z,3.75
2018-07-26T04:03:15.852Z,4.33
2018-07-26T04:05:44.292Z,4.30
2018-07-26T04:08:14.247Z,3.80
2018-07-26T04:10:43.067Z,4.28
2018-07-26T04:13:11.577Z,4.50
2018-07-26T04:15:40.061Z,4.30
2018-07-26T04:18:08.753Z,4.00
2018-07-26T04:20:37.247Z,4.20
2018-07-26T04:23:05.706Z,3.95
2018-07-26T04:25:34.938Z,4.03
2018-07-26T04:28:03.538Z,4.17
2018-07-26T04:30:31.929Z,3.87
2018-07-26T04:33:00.702Z,4.00
2018-07-26T04:35:29.045Z,5.30
2018-07-26T04:37:57.620Z,7.28
2018-07-26T04:40:26.149Z,6.08
2018-07-26T04:42:54.488Z,4.08
2018-07-26T04:45:23.066Z,3.87
2018-07-26T04:47:51.857Z,4.00
2018-07-26T04:50:20.338Z,4.45
2018-07-26T04:52:48.694Z,4.50
2018-07-26T04:55:17.346Z,5.60
2018-07-26T04:57:45.937Z,5.28
2018-07-26T05:00:14.303Z,9.35
2018-07-26T05:02:44.285Z,5.05
2018-07-26T05:05:12.637Z,4.10
2018-07-26T05:07:42.791Z,6.12
2018-07-26T05:10:11.398Z,3.67
2018-07-26T05:12:39.946Z,3.55
2018-07-26T05:15:08.678Z,3.30
2018-07-26T05:17:37.431Z,3.02
2018-07-26T05:20:06.725Z,3.95
2018-07-26T05:22:35.405Z,14.63
2018-07-26T05:25:04.414Z,10.82
2018-07-26T05:27:32.820Z,7.20
2018-07-26T05:30:01.484Z,7.47
2018-07-26T05:32:29.850Z,6.42
2018-07-26T05:34:58.377Z,3.55
2018-07-26T05:37:27.327Z,5.97
2018-07-26T05:39:55.625Z,4.97
2018-07-26T05:42:24.084Z,7.97
2018-07-26T05:44:52.591Z,3.12
2018-07-26T05:47:20.962Z,6.08
2018-07-26T05:49:49.202Z,5.25
2018-07-26T05:52:17.873Z,5.65
2018-07-26T05:54:46.149Z,6.00
2018-07-26T05:57:14.497Z,3.65
2018-07-26T05:59:43.246Z,4.40
2018-07-26T06:02:12.386Z,6.58
2018-07-26T06:04:40.789Z,5.12
2018-07-26T06:07:09.522Z,3.30
2018-07-26T06:09:39.252Z,4.72
2018-07-26T06:12:07.609Z,3.47
2018-07-26T06:14:36.391Z,7.40
2018-07-26T06:17:04.709Z,5.83
2018-07-26T06:19:33.115Z,3.35
2018-07-26T06:22:01.622Z,4.05
2018-07-26T06:24:29.948Z,4.17
2018-07-26T06:26:58.222Z,3.45
2018-07-26T06:29:27.391Z,5.40
2018-07-26T06:31:55.616Z,3.47
2018-07-26T06:34:24.070Z,3.15
2018-07-26T06:36:52.389Z,3.83
2018-07-26T06:39:20.690Z,4.10
2018-07-26T06:41:48.883Z,3.17
2018-07-26T06:44:17.180Z,3.10
2018-07-26T06:46:45.608Z,3.40
2018-07-26T06:49:13.934Z,3.75
2018-07-26T06:51:42.597Z,3.25
2018-07-26T06:54:10.922Z,4.00
2018-07-26T06:56:39.264Z,2.85
2018-07-26T06:59:07.834Z,4.72
2018-07-26T07:01:36.071Z,4.20
2018-07-26T07:04:04.352Z,4.55
2018-07-26T07:06:32.889Z,3.00
2018-07-26T07:09:02.662Z,4.25
2018-07-26T07:11:30.951Z,3.83
2018-07-26T07:13:59.768Z,4.17
2018-07-26T07:16:28.117Z,2.55
2018-07-26T07:18:56.493Z,2.77
2018-07-26T07:21:25.197Z,2.87
2018-07-26T07:23:53.457Z,3.20
2018-07-26T07:26:21.693Z,4.85
2018-07-26T07:28:50.588Z,3.15
2018-07-26T07:31:18.830Z,3.45
2018-07-26T07:33:47.126Z,3.80
2018-07-26T07:36:15.878Z,2.65
2018-07-26T07:38:44.449Z,3.17
2018-07-26T07:41:14.011Z,6.42
2018-07-26T07:43:42.860Z,3.17
2018-07-26T07:46:11.174Z,2.85
2018-07-26T07:48:39.537Z,5.50
2018-07-26T07:51:08.507Z,2.95
2018-07-26T07:53:36.923Z,3.20
2018-07-26T07:56:05.291Z,4.33
2018-07-26T07:58:33.981Z,3.75
2018-07-26T08:01:02.473Z,2.83
2018-07-26T08:03:30.753Z,3.67
2018-07-26T08:05:59.110Z,3.35
2018-07-26T08:08:29.529Z,6.10
2018-07-26T08:10:57.910Z,4.30
2018-07-26T08:13:26.252Z,3.20
2018-07-26T08:15:54.690Z,2.60
2018-07-26T08:18:23.342Z,4.53
2018-07-26T08:20:51.924Z,3.22
2018-07-26T08:23:20.206Z,3.37
2018-07-26T08:25:48.483Z,5.05
2018-07-26T08:28:17.234Z,3.90
2018-07-26T08:30:45.506Z,3.42
2018-07-26T08:33:13.905Z,3.37
2018-07-26T08:35:42.510Z,2.65
2018-07-26T08:38:10.851Z,3.50
2018-07-26T08:40:39.178Z,2.92
2018-07-26T08:43:07.802Z,3.25
2018-07-26T08:45:36.158Z,2.55
2018-07-26T08:48:04.482Z,2.85
2018-07-26T08:50:33.349Z,5.80
2018-07-26T08:53:01.771Z,4.10
2018-07-26T08:55:30.118Z,3.12
2018-07-26T08:57:58.704Z,3.05
2018-07-26T09:00:26.956Z,2.62
2018-07-26T09:02:55.005Z,3.45
2018-07-26T09:05:23.666Z,2.87
2018-07-26T09:07:54.042Z,4.83
2018-07-26T09:10:22.436Z,4.20
2018-07-26T09:12:50.942Z,3.35
2018-07-26T09:15:19.213Z,3.65
2018-07-26T09:17:47.520Z,3.50
2018-07-26T09:20:16.338Z,3.37
2018-07-26T09:22:44.666Z,3.08
2018-07-26T09:25:12.975Z,2.70
2018-07-26T09:27:41.811Z,3.55
2018-07-26T09:30:10.826Z,2.92
2018-07-26T09:32:39.424Z,3.77
2018-07-26T09:35:08.209Z,3.20
2018-07-26T09:37:36.518Z,5.25
2018-07-26T09:40:05.331Z,2.72
2018-07-26T09:42:33.731Z,2.90
2018-07-26T09:45:02.114Z,6.12
2018-07-26T09:47:30.498Z,3.37
2018-07-26T09:49:58.844Z,3.80
2018-07-26T09:52:27.156Z,2.85
2018-07-26T09:54:55.578Z,3.10
2018-07-26T09:57:23.891Z,2.58
2018-07-26T09:59:52.192Z,3.25
2018-07-26T10:02:20.521Z,2.72
2018-07-26T10:04:49.406Z,3.92
2018-07-26T10:07:20.947Z,3.08
2018-07-26T10:09:49.530Z,4.15
2018-07-26T10:12:17.870Z,3.67
2018-07-26T10:14:46.152Z,3.00
2018-07-26T10:17:14.829Z,2.70
2018-07-26T10:19:43.206Z,2.95
2018-07-26T10:22:11.518Z,5.85
2018-07-26T10:24:41.850Z,2.92
2018-07-26T10:27:10.094Z,2.47
2018-07-26T10:29:38.469Z,3.87
2018-07-26T10:32:06.886Z,3.02
2018-07-26T10:34:35.277Z,3.90
2018-07-26T10:37:03.572Z,2.50
2018-07-26T10:39:32.240Z,2.25
2018-07-26T10:42:00.515Z,2.58
2018-07-26T10:44:28.982Z,2.42
2018-07-26T10:46:57.469Z,3.17
2018-07-26T10:49:25.933Z,2.80
2018-07-26T10:51:54.378Z,3.17
2018-07-26T10:54:23.014Z,3.00
2018-07-26T10:56:51.450Z,2.98
2018-07-26T10:59:19.833Z,2.70
2018-07-26T11:01:49.026Z,3.25
2018-07-26T11:04:17.346Z,2.65
2018-07-26T11:06:45.626Z,2.62
2018-07-26T11:09:15.569Z,2.95
2018-07-26T11:11:43.858Z,2.65
2018-07-26T11:14:12.246Z,2.30
2018-07-26T11:16:42.053Z,2.75
2018-07-26T11:19:10.299Z,2.72
2018-07-26T11:21:38.591Z,3.52
2018-07-26T11:24:07.192Z,3.67
2018-07-26T11:26:35.463Z,2.30
2018-07-26T11:29:03.903Z,2.20
2018-07-26T11:31:33.519Z,3.27
2018-07-26T11:34:01.779Z,4.20
2018-07-26T11:36:30.145Z,3.80
2018-07-26T11:38:59.450Z,3.75
2018-07-26T11:41:27.929Z,2.27
2018-07-26T11:43:56.505Z,2.20
2018-07-26T11:46:25.441Z,3.47
2018-07-26T11:48:53.708Z,2.45
2018-07-26T11:51:22.058Z,2.45
2018-07-26T11:56:25.006Z,2.92
2018-07-26T11:58:53.489Z,2.35
2018-07-26T12:01:21.766Z,2.30
2018-07-26T12:03:50.022Z,2.25
2018-07-26T12:06:18.722Z,2.98
2018-07-26T12:08:48.451Z,2.55
2018-07-26T12:11:16.811Z,2.37
2018-07-26T12:13:45.115Z,1.87
2018-07-26T12:16:13.500Z,2.58
2018-07-26T12:18:41.954Z,2.00
2018-07-26T12:21:10.226Z,2.05
2018-07-26T12:23:38.609Z,2.85
2018-07-26T12:26:07.699Z,1.72
2018-07-26T12:28:35.963Z,2.95
2018-07-26T12:31:04.238Z,2.12
2018-07-26T12:33:33.015Z,2.15
2018-07-26T12:36:01.345Z,2.30
2018-07-26T12:38:29.708Z,2.92
2018-07-26T12:40:58.222Z,1.85
2018-07-26T12:43:26.593Z,2.10
2018-07-26T12:45:54.953Z,3.58
2018-07-26T12:48:23.584Z,1.92
2018-07-26T12:50:52.190Z,2.15
2018-07-26T12:53:20.568Z,2.17
2018-07-26T12:55:48.957Z,2.20
2018-07-26T12:58:17.207Z,2.95
2018-07-26T13:00:45.574Z,1.77
2018-07-26T13:03:13.965Z,2.08
2018-07-26T13:05:42.500Z,3.10
2018-07-26T13:08:13.148Z,1.95
2018-07-26T13:10:42.521Z,2.40
2018-07-26T13:13:10.935Z,1.85
2018-07-26T13:15:39.270Z,2.72
2018-07-26T13:18:07.919Z,2.42
2018-07-26T13:20:36.259Z,2.17
2018-07-26T13:23:04.820Z,1.60
2018-07-26T13:25:34.043Z,2.30
2018-07-26T13:28:02.367Z,2.10
2018-07-26T13:30:30.681Z,1.98
2018-07-26T13:32:59.379Z,2.10
2018-07-26T13:35:27.756Z,2.92
2018-07-26T13:37:56.007Z,2.45
2018-07-26T13:40:24.430Z,2.77
2018-07-26T13:42:52.706Z,3.92
2018-07-26T13:45:21.050Z,2.22
2018-07-26T13:47:50.494Z,2.33
2018-07-26T13:50:18.777Z,2.10
2018-07-26T13:52:47.049Z,3.25
2018-07-26T13:55:15.601Z,2.58
2018-07-26T13:57:43.961Z,2.00
2018-07-26T14:00:13.354Z,2.15
2018-07-26T14:02:44.937Z,2.10
2018-07-26T14:05:13.337Z,3.33
2018-07-26T14:07:44.090Z,2.50
2018-07-26T14:10:12.379Z,2.15
2018-07-26T14:12:40.659Z,2.70
2018-07-26T14:15:10.366Z,2.50
2018-07-26T14:17:38.913Z,2.65
2018-07-26T14:20:09.052Z,1.80
2018-07-26T14:22:37.534Z,2.05
2018-07-26T14:25:06.088Z,2.17
2018-07-26T14:27:37.448Z,1.82
2018-07-26T14:30:06.879Z,1.87
2018-07-26T14:32:35.174Z,2.27
2018-07-26T14:35:03.519Z,1.85
2018-07-26T14:37:31.877Z,2.40
2018-07-26T14:40:00.239Z,2.12
2018-07-26T14:42:28.526Z,2.25
2018-07-26T14:44:56.864Z,2.75
2018-07-26T14:47:26.008Z,2.75
2018-07-26T14:49:54.287Z,2.67
2018-07-26T14:52:22.596Z,2.33
2018-07-26T14:54:50.911Z,1.70
2018-07-26T14:57:19.191Z,1.60
2018-07-26T14:59:47.542Z,2.60
2018-07-26T15:02:15.923Z,1.65
2018-07-26T15:04:43.957Z,2.10
2018-07-26T15:07:14.791Z,2.50
2018-07-26T15:09:44.251Z,2.45
2018-07-26T15:12:12.511Z,1.75
2018-07-26T15:14:40.862Z,3.55
2018-07-26T15:17:09.572Z,1.87
2018-07-26T15:19:37.890Z,2.12
2018-07-26T15:22:06.341Z,1.98
2018-07-26T15:24:36.016Z,1.72
2018-07-26T15:27:04.322Z,2.35
2018-07-26T15:29:32.627Z,2.20
2018-07-26T15:32:01.032Z,1.80
2018-07-26T15:34:29.370Z,2.50
2018-07-26T15:36:57.722Z,1.50
2018-07-26T15:39:26.179Z,2.10
2018-07-26T15:41:54.477Z,3.17
2018-07-26T15:44:22.844Z,3.25
2018-07-26T15:46:51.730Z,1.82
2018-07-26T15:49:20.062Z,3.15
2018-07-26T15:51:48.404Z,3.15
2018-07-26T15:54:16.780Z,2.40
2018-07-26T15:56:45.138Z,3.40
2018-07-26T15:59:13.429Z,2.98
2018-07-26T16:01:41.835Z,2.15
2018-07-26T16:04:10.212Z,5.83
2018-07-26T16:06:38.227Z,2.20
2018-07-26T16:09:11.038Z,2.95
2018-07-26T16:11:40.020Z,5.05
2018-07-26T16:14:09.114Z,1.90
2018-07-26T16:16:37.502Z,1.77
2018-07-26T16:19:05.975Z,3.00
2018-07-26T16:21:34.665Z,2.52
2018-07-26T16:24:02.914Z,2.55
2018-07-26T16:26:31.381Z,2.80
2018-07-26T16:29:00.415Z,2.67
2018-07-26T16:31:28.631Z,1.42
2018-07-26T16:33:57.005Z,4.65
2018-07-26T16:36:25.651Z,2.08
2018-07-26T16:38:53.934Z,3.33
2018-07-26T16:41:22.242Z,2.25
2018-07-26T16:43:50.379Z,5.50
2018-07-26T16:46:18.665Z,4.05
2018-07-26T16:48:47.002Z,1.70
2018-07-26T16:51:15.664Z,2.72
2018-07-26T16:53:44.108Z,1.80
2018-07-26T16:56:12.399Z,1.92
2018-07-26T16:58:41.046Z,4.08
2018-07-26T17:01:09.350Z,1.85
2018-07-26T17:03:37.647Z,2.95
2018-07-26T17:06:06.099Z,1.98
2018-07-26T17:08:36.521Z,3.22
2018-07-26T17:11:05.304Z,5.97
2018-07-26T17:13:33.731Z,2.27
2018-07-26T17:16:01.971Z,6.58
2018-07-26T17:18:30.307Z,4.22
2018-07-26T17:20:59.050Z,4.10
2018-07-26T17:23:27.394Z,5.35
2018-07-26T17:25:55.804Z,4.62
2018-07-26T17:28:24.588Z,5.40
2018-07-26T17:30:52.949Z,8.40
2018-07-26T17:33:21.314Z,8.73
2018-07-26T17:35:49.716Z,5.22
2018-07-26T17:38:18.024Z,8.48
2018-07-26T17:40:46.307Z,9.98
2018-07-26T17:43:14.893Z,7.05
2018-07-26T17:45:43.184Z,5.08
2018-07-26T17:48:11.488Z,6.28
2018-07-26T17:50:40.099Z,7.28
2018-07-26T17:53:08.386Z,3.55
2018-07-26T17:55:36.672Z,5.22
2018-07-26T17:58:05.238Z,4.50
2018-07-26T18:00:33.565Z,4.62
2018-07-26T18:03:02.001Z,6.78
2018-07-26T18:05:30.682Z,8.93
2018-07-26T18:08:00.704Z,5.12
2018-07-26T18:10:28.995Z,8.60
2018-07-26T18:12:57.978Z,9.15
2018-07-26T18:15:26.441Z,11.30
2018-07-26T18:17:54.777Z,14.95
2018-07-26T18:20:23.317Z,10.63
2018-07-26T18:22:51.637Z,7.25
2018-07-26T18:25:20.003Z,14.60
2018-07-26T18:27:48.897Z,12.43
2018-07-26T18:30:17.184Z,12.03
2018-07-26T18:32:45.476Z,16.23
2018-07-26T18:35:14.822Z,13.38
2018-07-26T18:37:43.815Z,18.25
2018-07-26T18:40:12.239Z,17.52
2018-07-26T18:42:40.499Z,17.15
2018-07-26T18:45:09.950Z,27.02
2018-07-26T18:47:38.643Z,19.57
2018-07-26T18:50:07.917Z,10.70
2018-07-26T18:52:36.319Z,13.78
2018-07-26T18:55:06.111Z,11.68
2018-07-26T18:57:34.455Z,11.93
2018-07-26T19:00:02.830Z,13.28
2018-07-26T19:02:31.140Z,18.85
2018-07-26T19:05:00.712Z,15.30
2018-07-26T19:07:30.566Z,15.83
2018-07-26T19:09:58.936Z,15.90
2018-07-26T19:12:27.427Z,22.75
2018-07-26T19:14:55.715Z,15.32
2018-07-26T19:17:24.133Z,20.75
2018-07-26T19:19:52.422Z,12.07
2018-07-26T19:22:20.762Z,12.63
2018-07-26T19:24:49.115Z,16.87
2018-07-26T19:27:17.754Z,18.70
2018-07-26T19:29:46.105Z,13.78
2018-07-26T19:32:14.610Z,12.45
2018-07-26T19:34:43.154Z,18.12
2018-07-26T19:37:11.445Z,13.32
2018-07-26T19:39:39.887Z,13.65
2018-07-26T19:42:08.602Z,12.35
2018-07-26T19:44:36.914Z,12.80
2018-07-26T19:47:05.271Z,17.92
2018-07-26T19:49:33.982Z,17.37
2018-07-26T19:52:02.268Z,9.00
2018-07-26T19:54:30.649Z,17.73
2018-07-26T19:56:59.120Z,19.80
2018-07-26T19:59:27.506Z,18.57
2018-07-26T20:01:55.768Z,15.63
2018-07-26T20:04:24.218Z,14.90
2018-07-26T20:06:52.598Z,17.98
2018-07-26T20:09:22.508Z,26.20
2018-07-26T20:11:50.897Z,13.40
2018-07-26T20:14:19.218Z,20.90
2018-07-26T20:16:47.564Z,20.15
2018-07-26T20:19:16.016Z,20.08
2018-07-26T20:21:44.306Z,15.65
2018-07-26T20:24:12.816Z,16.85
2018-07-26T20:26:41.972Z,10.95
2018-07-26T20:29:10.220Z,16.12
2018-07-26T20:31:38.549Z,21.40
2018-07-26T20:34:07.104Z,12.55
2018-07-26T20:36:35.123Z,15.60
2018-07-26T20:39:03.500Z,14.90
2018-07-26T20:41:31.867Z,12.00
2018-07-26T20:44:00.279Z,11.22
2018-07-26T20:46:28.555Z,11.00
2018-07-26T20:48:57.313Z,12.05
2018-07-26T20:51:25.716Z,14.98
2018-07-26T20:53:54.133Z,10.98
2018-07-26T20:56:22.803Z,11.97
2018-07-26T20:58:51.274Z,13.78
2018-07-26T21:01:19.710Z,12.53
2018-07-26T21:03:48.155Z,7.85
2018-07-26T21:06:16.479Z,12.82
2018-07-26T21:08:46.235Z,8.23
2018-07-26T21:11:15.062Z,16.32
2018-07-26T21:13:43.689Z,7.60
2018-07-26T21:16:11.967Z,8.25
2018-07-26T21:18:40.788Z,10.82
2018-07-26T21:21:09.159Z,7.35
2018-07-26T21:23:37.513Z,7.92
2018-07-26T21:26:06.787Z,6.97
2018-07-26T21:28:35.118Z,5.65
2018-07-26T21:31:03.473Z,6.33
2018-07-26T21:33:31.964Z,6.85
2018-07-26T21:36:00.311Z,6.65
2018-07-26T21:38:28.811Z,9.03
2018-07-26T21:40:57.398Z,6.83
2018-07-26T21:43:25.626Z,5.97
2018-07-26T21:45:53.932Z,4.75
2018-07-26T21:48:22.747Z,4.25
2018-07-26T21:50:51.159Z,6.05
2018-07-26T21:53:19.557Z,5.72
2018-07-26T21:55:48.070Z,8.13
2018-07-26T21:58:16.353Z,3.87
2018-07-26T22:00:50.295Z,4.62
2018-07-26T22:03:18.622Z,5.83
2018-07-26T22:05:47.130Z,6.20
2018-07-26T22:08:17.663Z,4.17
2018-07-26T22:10:45.966Z,5.65
2018-07-26T22:13:14.645Z,6.65
2018-07-26T22:15:43.116Z,4.00
2018-07-26T22:18:11.434Z,4.60
2018-07-26T22:20:40.018Z,4.58
2018-07-26T22:23:08.734Z,5.12
2018-07-26T22:25:36.965Z,3.72
2018-07-26T22:28:05.153Z,3.50
2018-07-26T22:30:33.904Z,7.37
2018-07-26T22:33:02.376Z,4.62
2018-07-26T22:35:30.647Z,5.25
2018-07-26T22:37:59.413Z,3.72
2018-07-26T22:40:27.762Z,3.47
2018-07-26T22:42:56.050Z,2.17
2018-07-26T22:45:24.485Z,3.05
2018-07-26T22:47:52.857Z,4.42
2018-07-26T22:50:21.474Z,4.83
2018-07-26T22:52:50.171Z,3.02
2018-07-26T22:55:18.468Z,4.97
2018-07-26T22:57:46.783Z,3.05
2018-07-26T23:00:15.138Z,3.22
2018-07-26T23:02:43.414Z,2.67
2018-07-26T23:05:11.795Z,3.12
2018-07-26T23:07:41.554Z,3.33
2018-07-26T23:10:10.764Z,3.15
2018-07-26T23:12:39.548Z,3.72
2018-07-26T23:15:11.068Z,2.85
2018-07-26T23:17:39.799Z,4.00
2018-07-26T23:20:09.671Z,4.87
2018-07-26T23:22:37.959Z,2.75
2018-07-26T23:25:07.110Z,3.98
2018-07-26T23:27:35.642Z,2.75
2018-07-26T23:30:09.602Z,4.15
2018-07-26T23:32:38.401Z,3.10
2018-07-26T23:35:06.702Z,2.70
2018-07-26T23:37:35.225Z,3.27
2018-07-26T23:40:03.641Z,4.03
2018-07-26T23:42:31.937Z,2.10
2018-07-26T23:45:00.238Z,3.67
2018-07-26T23:47:28.801Z,1.95
2018-07-26T23:49:57.146Z,4.25
2018-07-26T23:52:25.491Z,4.33
2018-07-26T23:54:54.558Z,2.75
2018-07-26T23:57:22.926Z,4.05
2018-07-26T23:59:51.252Z,2.42
